Time;durP1;ratioP1;P1;durP2;ratioP2;P2;SDS_P1;SDS_P2;PMS_P1;PMS_P2;Temp;Humidity;BMP_temperature;BMP_pressure;BME280_temperature;BME280_humidity;BME280_pressure;Samples;Min_cycle;Max_cycle;Signal;HPM_P1;HPM_P2
2021/10/23 00:02:20;;;;;;;2.47;1.30;;;12.30;99.90;;;;;;4998426;28;20316;-86
2021/10/23 00:04:51;;;;;;;6.53;1.40;;;12.30;99.90;;;;;;5001458;28;20266;-86
2021/10/23 00:07:26;;;;;;;4.00;1.60;;;12.30;99.90;;;;;;5005389;28;20245;-86
2021/10/23 00:09:57;;;;;;;7.40;2.17;;;12.20;99.90;;;;;;5006834;28;20206;-86
2021/10/23 00:12:28;;;;;;;5.20;2.40;;;12.20;99.90;;;;;;5010824;28;20245;-86
2021/10/23 00:14:59;;;;;;;6.00;2.50;;;12.20;99.90;;;;;;5005363;28;20260;-87
2021/10/23 00:17:32;;;;;;;5.47;2.17;;;12.00;99.90;;;;;;5003783;28;20695;-86
2021/10/23 00:20:04;;;;;;;8.23;2.60;;;11.90;99.90;;;;;;5003440;28;20252;-86
2021/10/23 00:22:35;;;;;;;9.47;2.53;;;11.80;99.90;;;;;;5000839;28;20241;-86
2021/10/23 00:25:08;;;;;;;7.10;2.53;;;11.70;99.90;;;;;;4998950;28;20226;-86
2021/10/23 00:27:39;;;;;;;5.43;2.30;;;11.70;99.90;;;;;;5004311;28;20202;-86
2021/10/23 00:30:11;;;;;;;3.97;2.00;;;11.60;99.90;;;;;;5006921;28;20622;-87
2021/10/23 00:32:45;;;;;;;11.07;2.70;;;11.60;99.90;;;;;;5003714;28;20214;-86
2021/10/23 00:35:16;;;;;;;6.57;2.43;;;11.60;99.90;;;;;;5009131;28;20237;-85
2021/10/23 00:37:47;;;;;;;5.47;2.60;;;11.60;99.90;;;;;;5011440;28;20271;-86
2021/10/23 00:40:20;;;;;;;10.70;3.60;;;11.60;99.90;;;;;;5010666;28;20218;-86
2021/10/23 00:42:52;;;;;;;9.47;3.50;;;11.60;99.90;;;;;;5006948;28;20237;-86
2021/10/23 00:45:24;;;;;;;10.27;3.93;;;11.60;99.90;;;;;;4995223;28;20205;-85
2021/10/23 00:47:58;;;;;;;10.93;4.07;;;11.60;99.90;;;;;;5007634;28;20214;-84
2021/10/23 00:50:30;;;;;;;11.70;3.90;;;11.60;99.90;;;;;;5006051;28;20230;-86
2021/10/23 00:53:01;;;;;;;9.50;4.10;;;11.60;99.90;;;;;;4999958;28;20210;-86
2021/10/23 00:55:32;;;;;;;10.60;3.83;;;11.60;99.90;;;;;;4999696;28;20603;-85
2021/10/23 00:58:04;;;;;;;12.80;3.57;;;11.60;99.90;;;;;;5000188;28;20572;-86
2021/10/23 01:00:34;;;;;;;6.83;3.53;;;11.60;99.90;;;;;;4996389;28;20261;-84
2021/10/23 01:03:08;;;;;;;12.23;3.97;;;11.50;99.90;;;;;;4990246;28;20280;-86
2021/10/23 01:05:41;;;;;;;13.67;3.83;;;11.50;99.90;;;;;;5008743;28;20191;-86
2021/10/23 01:10:59;;;;;;;10.23;3.20;;;11.50;99.90;;;;;;4992714;28;20285;-85
2021/10/23 01:13:30;;;;;;;9.37;3.60;;;11.40;99.90;;;;;;5006362;28;20206;-83
2021/10/23 01:16:02;;;;;;;10.43;3.20;;;11.40;99.90;;;;;;5006995;28;20203;-86
2021/10/23 01:18:38;;;;;;;8.77;2.97;;;11.40;99.90;;;;;;5005637;28;20226;-83
2021/10/23 01:21:11;;;;;;;11.53;3.00;;;11.40;99.90;;;;;;5000847;28;20234;-85
2021/10/23 01:23:42;;;;;;;8.60;2.80;;;11.30;99.90;;;;;;5007669;28;20285;-86
2021/10/23 01:26:14;;;;;;;14.17;3.00;;;11.30;99.90;;;;;;5011937;28;20245;-85
2021/10/23 01:28:47;;;;;;;8.30;2.30;;;11.20;99.90;;;;;;5002843;28;20198;-85
2021/10/23 01:31:19;;;;;;;14.63;2.93;;;11.20;99.90;;;;;;5017108;28;20205;-89
2021/10/23 01:33:50;;;;;;;6.97;2.37;;;11.10;99.90;;;;;;5019190;28;20205;-87
2021/10/23 01:36:25;;;;;;;12.47;2.27;;;11.10;99.90;;;;;;5138640;23;20250;-88
2021/10/23 01:38:56;;;;;;;12.73;2.67;;;11.10;99.90;;;;;;4999610;28;20191;-88
2021/10/23 01:41:31;;;;;;;9.90;2.50;;;11.10;99.90;;;;;;4981322;28;20248;-88
2021/10/23 01:44:02;;;;;;;9.47;2.17;;;11.00;99.90;;;;;;4989598;28;20226;-88
2021/10/23 01:46:34;;;;;;;10.67;2.30;;;11.00;99.90;;;;;;4985717;28;20213;-90
2021/10/23 01:49:07;;;;;;;12.73;2.90;;;10.90;99.90;;;;;;4995432;28;20207;-89
2021/10/23 01:51:41;;;;;;;8.97;2.73;;;10.90;99.90;;;;;;4994743;28;20221;-89
2021/10/23 01:54:14;;;;;;;9.33;2.33;;;10.90;99.90;;;;;;4992071;28;20225;-87
2021/10/23 01:56:47;;;;;;;12.27;3.03;;;10.90;99.90;;;;;;4990461;28;20207;-87
2021/10/23 01:59:19;;;;;;;7.20;1.87;;;10.90;99.90;;;;;;4976095;28;20208;-85
2021/10/23 02:01:53;;;;;;;8.17;2.90;;;10.90;99.90;;;;;;5003238;28;20206;-86
2021/10/23 02:07:09;;;;;;;11.50;3.40;;;10.90;99.90;;;;;;4745487;23;10002048;-85
2021/10/23 02:09:43;;;;;;;10.83;2.40;;;10.90;99.90;;;;;;5100825;23;20252;-86
2021/10/23 02:12:15;;;;;;;9.43;2.90;;;10.80;99.90;;;;;;5016803;28;20210;-85
2021/10/23 02:14:47;;;;;;;8.17;2.63;;;10.80;99.90;;;;;;5016909;28;20202;-87
2021/10/23 02:17:19;;;;;;;8.60;2.57;;;10.80;99.90;;;;;;5026572;28;20206;-86
2021/10/23 02:19:50;;;;;;;15.13;2.73;;;10.80;99.90;;;;;;5019228;28;20202;-85
2021/10/23 02:22:26;;;;;;;10.50;2.97;;;10.80;99.90;;;;;;5021432;28;20205;-89
2021/10/23 02:24:58;;;;;;;10.73;2.93;;;10.80;99.90;;;;;;5002784;28;20214;-89
2021/10/23 02:27:32;;;;;;;9.57;2.73;;;10.80;99.90;;;;;;5026466;28;20228;-88
2021/10/23 02:30:04;;;;;;;10.50;2.57;;;10.80;99.90;;;;;;5017557;28;20229;-85
2021/10/23 02:32:36;;;;;;;14.23;3.23;;;10.70;99.90;;;;;;5031859;28;20208;-87
2021/10/23 02:35:08;;;;;;;12.13;2.87;;;10.80;99.90;;;;;;5024682;28;20264;-87
2021/10/23 02:37:41;;;;;;;11.13;2.97;;;10.70;99.90;;;;;;5024545;28;20232;-87
2021/10/23 02:42:51;;;;;;;10.03;2.53;;;10.70;99.90;;;;;;5008601;28;20224;-88
2021/10/23 02:45:23;;;;;;;13.93;3.10;;;10.70;99.90;;;;;;5010108;28;20216;-88
2021/10/23 02:47:56;;;;;;;9.20;2.60;;;10.60;99.90;;;;;;5009088;28;20218;-87
2021/10/23 02:50:28;;;;;;;13.83;3.10;;;10.70;99.90;;;;;;4991552;28;20262;-88
2021/10/23 02:53:02;;;;;;;13.70;2.83;;;10.60;99.90;;;;;;4971260;28;20215;-89
2021/10/23 02:55:34;;;;;;;11.67;2.80;;;10.70;99.90;;;;;;4978889;28;20531;-89
2021/10/23 02:58:11;;;;;;;14.40;3.20;;;10.60;99.90;;;;;;4975932;28;20217;-90
2021/10/23 03:00:44;;;;;;;7.97;2.60;;;10.60;99.90;;;;;;4997144;28;20197;-88
2021/10/23 03:03:17;;;;;;;12.70;3.30;;;10.70;99.90;;;;;;5001681;28;20218;-89
2021/10/23 03:05:49;;;;;;;11.57;2.70;;;10.60;99.90;;;;;;4975841;28;20187;-90
2021/10/23 03:08:24;;;;;;;14.13;2.90;;;10.60;99.90;;;;;;4974549;28;20203;-88
2021/10/23 03:10:54;;;;;;;10.43;2.93;;;10.70;99.90;;;;;;4983919;28;20391;-88
2021/10/23 03:13:26;;;;;;;8.37;2.60;;;10.70;99.90;;;;;;4991662;28;20289;-88
2021/10/23 03:16:06;;;;;;;15.47;3.30;;;10.70;99.90;;;;;;4978993;28;20207;-88
2021/10/23 03:18:38;;;;;;;14.90;3.77;;;10.70;99.90;;;;;;4980661;28;20215;-89
2021/10/23 03:21:12;;;;;;;13.47;3.57;;;10.80;99.90;;;;;;4970585;29;20201;-89
2021/10/23 03:23:48;;;;;;;14.07;3.17;;;10.80;99.90;;;;;;4990181;28;20249;-88
2021/10/23 03:26:20;;;;;;;9.20;3.00;;;10.80;99.90;;;;;;4985124;28;20237;-87
2021/10/23 03:28:52;;;;;;;10.20;3.07;;;10.80;99.90;;;;;;5006356;28;20207;-88
2021/10/23 03:31:34;;;;;;;9.63;3.03;;;10.70;99.90;;;;;;5010911;28;20209;-88
2021/10/23 03:34:22;;;;;;;12.00;3.80;;;10.80;99.90;;;;;;4973555;28;20207;-88
2021/10/23 03:36:57;;;;;;;12.40;3.73;;;10.80;99.90;;;;;;4986559;28;20200;-89
2021/10/23 03:39:32;;;;;;;12.03;2.77;;;10.80;99.90;;;;;;4979661;28;20210;-89
2021/10/23 03:42:03;;;;;;;9.90;3.03;;;10.80;99.90;;;;;;4979608;28;20217;-89
2021/10/23 03:44:35;;;;;;;6.50;2.80;;;10.80;99.90;;;;;;4987586;28;20241;-89
2021/10/23 03:47:08;;;;;;;11.40;2.97;;;10.70;99.90;;;;;;4988988;28;20203;-89
2021/10/23 03:49:42;;;;;;;11.70;3.50;;;10.70;99.90;;;;;;4990274;28;20227;-89
2021/10/23 03:52:13;;;;;;;11.33;3.17;;;10.70;99.90;;;;;;4986277;28;20265;-89
2021/10/23 03:54:50;;;;;;;9.07;3.33;;;10.70;99.90;;;;;;4986357;28;20202;-89
2021/10/23 03:57:21;;;;;;;12.10;3.37;;;10.60;99.90;;;;;;4978695;28;20602;-88
2021/10/23 03:59:54;;;;;;;12.70;3.53;;;10.60;99.90;;;;;;4990006;28;20195;-89
2021/10/23 04:02:26;;;;;;;11.87;3.40;;;10.60;99.90;;;;;;4975025;28;20948;-89
2021/10/23 04:04:58;;;;;;;13.00;3.23;;;10.60;99.90;;;;;;4973886;28;20241;-89
2021/10/23 04:07:30;;;;;;;13.80;3.80;;;10.60;99.90;;;;;;4990973;28;20222;-88
2021/10/23 04:10:04;;;;;;;10.93;3.80;;;10.50;99.90;;;;;;4977594;28;20215;-88
2021/10/23 04:12:35;;;;;;;7.17;3.13;;;10.50;99.90;;;;;;4977631;28;20215;-88
2021/10/23 04:15:09;;;;;;;16.30;3.73;;;10.50;99.90;;;;;;4991966;28;20645;-88
2021/10/23 04:17:40;;;;;;;12.83;3.93;;;10.40;99.90;;;;;;4971313;29;20238;-88
2021/10/23 04:20:13;;;;;;;9.20;3.50;;;10.40;99.90;;;;;;4974984;28;20203;-88
2021/10/23 04:27:56;;;;;;;10.13;3.50;;;10.20;99.90;;;;;;5027479;28;20224;-89
2021/10/23 04:30:29;;;;;;;10.53;3.50;;;10.20;99.90;;;;;;5020303;28;20237;-87
2021/10/23 04:32:59;;;;;;;14.30;4.13;;;10.20;99.90;;;;;;5019318;28;20641;-88
2021/10/23 04:35:31;;;;;;;14.00;4.53;;;10.10;99.90;;;;;;5020128;28;20206;-89
2021/10/23 04:38:04;;;;;;;12.60;3.60;;;10.10;99.90;;;;;;5026382;28;20205;-88
2021/10/23 04:40:38;;;;;;;10.23;3.90;;;10.10;99.90;;;;;;5022967;28;20249;-88
2021/10/23 04:43:11;;;;;;;10.77;3.57;;;10.00;99.90;;;;;;5020731;28;20299;-88
2021/10/23 04:45:43;;;;;;;20.57;4.23;;;10.00;99.90;;;;;;5017298;28;20291;-88
2021/10/23 04:48:15;;;;;;;10.77;3.70;;;10.00;99.90;;;;;;5007796;28;20250;-85
2021/10/23 04:50:46;;;;;;;10.73;3.60;;;10.00;99.90;;;;;;4999011;28;20243;-88
2021/10/23 04:53:17;;;;;;;9.17;3.70;;;10.00;99.90;;;;;;4992059;28;20615;-88
2021/10/23 04:55:48;;;;;;;12.67;4.07;;;10.00;99.90;;;;;;5004896;28;20208;-88
2021/10/23 04:58:22;;;;;;;14.13;4.37;;;9.90;99.90;;;;;;5007832;28;20202;-88
2021/10/23 05:00:53;;;;;;;17.03;4.80;;;9.90;99.90;;;;;;4996709;28;20206;-88
2021/10/23 05:03:24;;;;;;;12.93;3.93;;;9.90;99.90;;;;;;5003844;28;20202;-89
2021/10/23 05:05:56;;;;;;;17.30;4.10;;;9.90;99.90;;;;;;4998522;28;20313;-89
2021/10/23 05:08:28;;;;;;;17.93;3.87;;;9.90;99.90;;;;;;5004837;28;20211;-88
2021/10/23 05:11:00;;;;;;;16.83;4.57;;;9.90;99.90;;;;;;5002505;28;20230;-88
2021/10/23 05:13:33;;;;;;;15.03;4.30;;;9.90;99.90;;;;;;5059221;23;20238;-87
2021/10/23 05:16:04;;;;;;;13.53;3.70;;;9.90;99.90;;;;;;5021334;28;20209;-87
2021/10/23 05:18:36;;;;;;;14.13;4.20;;;9.90;99.90;;;;;;5007897;28;20289;-84
2021/10/23 05:21:08;;;;;;;11.13;3.40;;;10.00;99.90;;;;;;4997554;28;20194;-87
2021/10/23 05:23:40;;;;;;;15.93;3.80;;;10.00;99.90;;;;;;5015699;28;20201;-87
2021/10/23 05:26:13;;;;;;;12.37;3.53;;;10.00;99.90;;;;;;5020703;28;20237;-87
2021/10/23 05:28:46;;;;;;;12.57;3.47;;;10.00;99.90;;;;;;5017513;28;20197;-87
2021/10/23 05:31:17;;;;;;;11.90;3.50;;;10.10;99.90;;;;;;5017561;28;20539;-88
2021/10/23 05:33:49;;;;;;;14.30;4.40;;;10.00;99.90;;;;;;5024249;28;20212;-88
2021/10/23 05:36:20;;;;;;;13.43;3.50;;;10.00;99.90;;;;;;5020005;28;20281;-87
2021/10/23 05:38:51;;;;;;;13.87;3.67;;;10.00;99.90;;;;;;5015556;28;20205;-88
2021/10/23 05:41:23;;;;;;;13.97;3.73;;;9.90;99.90;;;;;;5012989;28;20256;-88
2021/10/23 05:43:56;;;;;;;11.60;3.73;;;9.90;99.90;;;;;;5013963;28;20198;-87
2021/10/23 05:46:27;;;;;;;15.20;3.60;;;9.80;99.90;;;;;;4997461;28;20234;-88
2021/10/23 05:48:59;;;;;;;12.27;3.57;;;9.80;99.90;;;;;;4978128;28;20211;-88
2021/10/23 05:51:30;;;;;;;17.33;3.87;;;9.80;99.90;;;;;;4965291;28;20206;-88
2021/10/23 05:54:01;;;;;;;11.67;3.13;;;9.80;99.90;;;;;;4978159;28;20246;-87
2021/10/23 05:56:32;;;;;;;12.90;4.07;;;9.80;99.90;;;;;;4976144;28;20610;-87
2021/10/23 05:59:12;;;;;;;14.07;4.07;;;9.70;99.90;;;;;;4984905;28;20273;-88
2021/10/23 06:01:45;;;;;;;19.27;3.90;;;9.70;99.90;;;;;;4995178;28;20230;-88
2021/10/23 06:04:16;;;;;;;12.90;3.80;;;9.70;99.90;;;;;;4996741;28;20297;-88
2021/10/23 06:06:48;;;;;;;14.80;3.73;;;9.80;99.90;;;;;;4996215;28;20270;-87
2021/10/23 06:09:19;;;;;;;11.87;3.80;;;9.80;99.90;;;;;;4978312;28;20694;-88
2021/10/23 06:11:49;;;;;;;12.40;4.13;;;9.80;99.90;;;;;;4978620;28;20211;-89
2021/10/23 06:14:23;;;;;;;16.30;4.00;;;9.90;99.90;;;;;;4978200;28;20211;-89
2021/10/23 06:16:55;;;;;;;9.53;3.20;;;9.90;99.90;;;;;;4976968;28;20218;-86
2021/10/23 06:19:26;;;;;;;14.30;3.80;;;9.90;99.90;;;;;;4977372;28;20239;-87
2021/10/23 06:21:57;;;;;;;13.03;3.77;;;9.90;99.90;;;;;;4974579;28;20327;-87
2021/10/23 06:24:28;;;;;;;10.70;3.10;;;9.90;99.90;;;;;;4990277;28;20216;-89
2021/10/23 06:26:59;;;;;;;12.20;3.50;;;9.90;99.90;;;;;;5008116;28;20238;-88
2021/10/23 06:32:17;;;;;;;8.60;3.33;;;9.80;99.90;;;;;;4978575;28;20215;-88
2021/10/23 06:34:48;;;;;;;12.87;3.77;;;9.80;99.90;;;;;;4993575;28;20204;-87
2021/10/23 06:37:19;;;;;;;10.87;3.40;;;9.80;99.90;;;;;;4996658;28;20199;-88
2021/10/23 06:39:50;;;;;;;14.80;3.80;;;9.90;99.90;;;;;;4997930;28;20199;-87
2021/10/23 06:42:22;;;;;;;11.20;3.70;;;10.00;99.90;;;;;;4995777;28;20222;-88
2021/10/23 06:44:55;;;;;;;13.93;3.83;;;10.00;99.90;;;;;;4979640;28;20215;-92
2021/10/23 06:47:26;;;;;;;12.10;2.90;;;10.00;99.90;;;;;;4978346;28;20613;-89
2021/10/23 06:49:58;;;;;;;11.00;3.40;;;10.10;99.90;;;;;;4976813;28;20242;-88
2021/10/23 06:52:29;;;;;;;14.90;3.97;;;10.10;99.90;;;;;;4987244;28;20206;-89
2021/10/23 06:55:00;;;;;;;11.03;3.60;;;10.10;99.90;;;;;;4995484;28;20230;-89
2021/10/23 06:57:31;;;;;;;14.40;3.80;;;10.20;99.90;;;;;;4997466;28;20676;-89
2021/10/23 07:00:07;;;;;;;10.13;3.80;;;10.20;99.90;;;;;;4988978;28;20195;-88
2021/10/23 07:02:42;;;;;;;21.03;4.70;;;10.20;99.90;;;;;;4993269;28;20252;-88
2021/10/23 07:05:14;;;;;;;13.10;3.57;;;10.30;99.90;;;;;;5005585;28;20214;-88
2021/10/23 07:07:46;;;;;;;9.73;3.03;;;10.30;99.90;;;;;;5003225;28;20257;-89
2021/10/23 07:10:17;;;;;;;9.07;2.83;;;10.30;99.90;;;;;;5015506;28;20190;-88
2021/10/23 07:12:51;;;;;;;15.83;3.50;;;10.30;99.90;;;;;;5006871;28;20187;-88
2021/10/23 07:15:24;;;;;;;14.03;3.30;;;10.30;99.90;;;;;;5010481;28;20203;-88
2021/10/23 07:17:55;;;;;;;14.47;3.47;;;10.40;99.90;;;;;;4990805;28;20230;-88
2021/10/23 07:20:27;;;;;;;11.67;3.10;;;10.40;99.90;;;;;;4999601;28;20209;-88
2021/10/23 07:22:58;;;;;;;10.93;3.50;;;10.40;99.90;;;;;;5000284;28;20202;-88
2021/10/23 07:25:29;;;;;;;10.23;3.30;;;10.40;99.90;;;;;;4997181;28;20771;-89
2021/10/23 07:28:02;;;;;;;12.10;2.90;;;10.40;99.90;;;;;;4996006;28;20206;-88
2021/10/23 07:30:39;;;;;;;10.40;2.97;;;10.40;99.90;;;;;;4976884;28;20215;-88
2021/10/23 07:33:10;;;;;;;9.67;3.00;;;10.50;99.90;;;;;;4995133;28;20221;-88
2021/10/23 07:35:42;;;;;;;13.67;3.10;;;10.50;99.90;;;;;;4995816;28;20253;-88
2021/10/23 07:38:14;;;;;;;12.53;2.77;;;10.50;99.90;;;;;;4985658;28;20215;-88
2021/10/23 07:40:49;;;;;;;13.70;3.60;;;10.50;99.90;;;;;;5010257;28;20289;-88
2021/10/23 07:43:22;;;;;;;10.90;3.20;;;10.50;99.90;;;;;;5015476;28;20249;-88
2021/10/23 07:45:56;;;;;;;14.33;4.13;;;10.50;99.90;;;;;;5015907;28;20292;-88
2021/10/23 07:48:28;;;;;;;9.57;3.80;;;10.50;99.90;;;;;;4980723;28;20266;-88
2021/10/23 07:50:58;;;;;;;13.97;3.10;;;10.50;99.90;;;;;;4980620;28;20211;-87
2021/10/23 07:53:29;;;;;;;10.70;3.00;;;10.50;99.90;;;;;;4999031;28;20221;-87
2021/10/23 07:56:02;;;;;;;14.00;2.90;;;10.50;99.90;;;;;;4998684;28;20214;-88
2021/10/23 07:58:33;;;;;;;12.33;3.37;;;10.40;99.90;;;;;;4999906;28;20226;-87
2021/10/23 08:01:07;;;;;;;8.47;2.73;;;10.40;99.90;;;;;;5000091;28;20253;-88
2021/10/23 08:03:38;;;;;;;11.70;3.33;;;10.40;99.90;;;;;;4999880;28;20210;-88
2021/10/23 08:06:09;;;;;;;13.10;3.33;;;10.40;99.90;;;;;;4999111;28;20233;-87
2021/10/23 08:08:41;;;;;;;14.70;3.77;;;10.40;99.90;;;;;;5000006;28;20198;-87
2021/10/23 08:11:12;;;;;;;11.00;3.07;;;10.30;99.90;;;;;;5000052;28;20206;-88
2021/10/23 08:13:43;;;;;;;13.23;3.43;;;10.30;99.90;;;;;;4999556;28;20217;-87
2021/10/23 08:16:16;;;;;;;6.40;3.00;;;10.20;99.90;;;;;;4999014;28;20206;-87
2021/10/23 08:18:48;;;;;;;10.93;3.00;;;10.10;99.90;;;;;;4982607;28;20210;-87
2021/10/23 08:21:20;;;;;;;11.00;2.93;;;10.10;99.90;;;;;;4998514;28;20257;-86
2021/10/23 08:23:51;;;;;;;8.57;2.77;;;10.00;99.90;;;;;;4994585;28;20242;-89
2021/10/23 08:26:22;;;;;;;11.07;2.90;;;10.00;99.90;;;;;;4994803;28;20276;-88
2021/10/23 08:28:53;;;;;;;10.00;2.90;;;9.90;99.90;;;;;;5002035;28;20225;-87
2021/10/23 08:31:27;;;;;;;13.17;3.23;;;9.90;99.90;;;;;;5000753;28;20252;-88
2021/10/23 08:34:00;;;;;;;14.03;2.97;;;9.80;99.90;;;;;;4999954;28;20214;-88
2021/10/23 08:36:32;;;;;;;12.90;3.50;;;9.80;99.90;;;;;;4999309;28;20619;-88
2021/10/23 08:39:03;;;;;;;7.13;3.30;;;9.90;99.90;;;;;;4997625;28;20210;-88
2021/10/23 08:41:35;;;;;;;10.30;3.57;;;9.90;99.90;;;;;;4980687;28;20258;-88
2021/10/23 08:44:06;;;;;;;14.60;3.40;;;9.90;99.90;;;;;;4997681;28;20639;-88
2021/10/23 08:46:42;;;;;;;10.53;3.13;;;9.90;99.90;;;;;;4998910;28;20330;-87
2021/10/23 08:49:15;;;;;;;12.57;2.80;;;9.90;99.90;;;;;;5013738;28;20202;-87
2021/10/23 08:51:47;;;;;;;10.23;2.90;;;9.90;99.90;;;;;;5012739;28;20199;-88
2021/10/23 08:54:18;;;;;;;10.53;3.40;;;9.90;99.90;;;;;;4995277;28;20211;-88
2021/10/23 08:56:50;;;;;;;8.87;3.00;;;10.00;99.90;;;;;;4966616;28;20625;-88
2021/10/23 08:59:21;;;;;;;7.03;2.90;;;10.00;99.90;;;;;;4985788;28;20265;-88
2021/10/23 09:02:00;;;;;;;10.20;3.20;;;10.00;99.90;;;;;;4980212;28;20666;-88
2021/10/23 09:04:33;;;;;;;10.57;3.20;;;10.00;99.90;;;;;;4979418;28;20253;-88
2021/10/23 09:07:11;;;;;;;8.43;3.07;;;10.00;99.90;;;;;;4991826;28;20238;-88
2021/10/23 09:09:53;;;;;;;8.80;2.90;;;10.00;99.90;;;;;;4999523;28;20264;-87
2021/10/23 09:12:25;;;;;;;11.30;3.10;;;10.10;99.90;;;;;;4998278;28;20234;-88
2021/10/23 09:15:02;;;;;;;19.00;3.63;;;10.00;99.90;;;;;;4992164;28;20536;-87
2021/10/23 09:17:35;;;;;;;7.70;2.47;;;10.00;99.90;;;;;;4978452;28;20669;-88
2021/10/23 09:20:12;;;;;;;10.57;2.90;;;10.00;99.90;;;;;;4983298;28;20218;-87
2021/10/23 09:22:45;;;;;;;9.07;2.47;;;10.10;99.90;;;;;;4979337;28;20219;-88
2021/10/23 09:25:24;;;;;;;8.70;2.77;;;10.10;99.90;;;;;;4995306;28;20245;-87
2021/10/23 09:28:02;;;;;;;8.53;2.80;;;10.10;99.90;;;;;;4998125;28;20712;-87
2021/10/23 09:30:35;;;;;;;11.33;2.60;;;10.00;99.90;;;;;;4998299;28;20703;-88
2021/10/23 09:33:10;;;;;;;8.27;2.67;;;10.00;99.90;;;;;;4998597;28;20405;-88
2021/10/23 09:35:42;;;;;;;7.67;3.00;;;10.00;99.90;;;;;;4997530;28;20256;-88
2021/10/23 09:38:14;;;;;;;8.83;2.93;;;10.00;99.90;;;;;;4999686;28;20210;-87
2021/10/23 09:40:49;;;;;;;6.17;2.60;;;10.00;99.90;;;;;;4991314;28;20211;-88
2021/10/23 09:43:27;;;;;;;9.43;2.67;;;10.00;99.90;;;;;;5002869;28;20214;-87
2021/10/23 09:46:13;;;;;;;6.83;2.43;;;10.00;99.90;;;;;;5002739;28;20282;-88
2021/10/23 09:48:48;;;;;;;8.93;2.70;;;10.00;99.90;;;;;;4982467;28;20748;-87
2021/10/23 09:51:23;;;;;;;9.60;3.13;;;10.00;99.90;;;;;;4985816;28;20213;-87
2021/10/23 09:53:57;;;;;;;8.43;2.93;;;10.10;99.90;;;;;;4980755;28;20269;-88
2021/10/23 09:56:30;;;;;;;10.67;2.60;;;10.10;99.90;;;;;;4977821;28;20218;-87
2021/10/23 09:59:02;;;;;;;8.67;2.20;;;10.10;99.90;;;;;;4961518;28;20215;-87
2021/10/23 10:01:34;;;;;;;9.10;3.10;;;10.10;99.90;;;;;;4961986;28;20215;-85
2021/10/23 10:04:10;;;;;;;10.03;2.83;;;10.10;99.90;;;;;;4977588;28;20207;-87
2021/10/23 10:06:42;;;;;;;7.70;2.47;;;10.10;99.90;;;;;;4985912;28;20205;-87
2021/10/23 10:09:14;;;;;;;8.07;2.50;;;10.10;99.90;;;;;;4982504;28;20227;-87
2021/10/23 10:11:47;;;;;;;9.50;2.77;;;10.10;99.90;;;;;;5019551;23;20277;-87
2021/10/23 10:14:23;;;;;;;8.57;2.27;;;10.20;99.90;;;;;;4998128;28;20649;-88
2021/10/23 10:16:56;;;;;;;7.57;2.67;;;10.10;99.90;;;;;;4991061;28;20661;-87
2021/10/23 10:19:28;;;;;;;6.33;2.23;;;10.10;99.90;;;;;;4977980;28;20207;-87
2021/10/23 10:22:06;;;;;;;10.00;2.97;;;10.10;99.90;;;;;;4991202;28;20228;-88
2021/10/23 10:24:38;;;;;;;8.03;3.30;;;10.10;99.90;;;;;;5016976;28;20259;-87
2021/10/23 10:27:13;;;;;;;7.23;2.97;;;10.10;99.90;;;;;;4999156;28;20234;-88
2021/10/23 10:29:48;;;;;;;10.00;2.93;;;10.10;99.90;;;;;;4996050;28;20202;-88
2021/10/23 10:32:23;;;;;;;9.17;2.80;;;10.10;99.90;;;;;;5000495;28;20210;-88
2021/10/23 10:35:30;;;;;;;11.83;2.40;;;10.10;99.90;;;;;;4996098;28;20245;-88
2021/10/23 10:38:25;;;;;;;7.23;2.40;;;10.10;99.90;;;;;;4996617;28;20785;-88
2021/10/23 10:44:18;;;;;;;7.70;2.07;;;10.10;99.90;;;;;;4996758;28;20218;-87
2021/10/23 10:47:12;;;;;;;12.03;2.37;;;10.10;99.90;;;;;;4992678;28;20226;-88
2021/10/23 10:49:50;;;;;;;9.57;2.37;;;10.00;99.90;;;;;;4990481;28;20233;-88
2021/10/23 10:52:56;;;;;;;12.03;2.23;;;10.00;99.90;;;;;;4997759;28;20256;-87
2021/10/23 10:55:38;;;;;;;9.40;2.33;;;10.10;99.90;;;;;;5010308;28;20206;-88
2021/10/23 10:58:10;;;;;;;6.60;2.10;;;10.10;99.90;;;;;;4987576;28;20223;-88
2021/10/23 11:01:15;;;;;;;8.20;2.03;;;10.10;99.90;;;;;;5011204;28;20214;-87
2021/10/23 11:04:08;;;;;;;9.70;2.60;;;10.10;99.90;;;;;;5008928;28;20233;-88
2021/10/23 11:06:52;;;;;;;4.80;2.07;;;10.00;99.90;;;;;;4996633;28;20233;-88
2021/10/23 11:09:54;;;;;;;7.63;1.90;;;10.00;99.90;;;;;;4995309;28;20238;-88
2021/10/23 11:12:38;;;;;;;7.67;1.70;;;10.10;99.90;;;;;;4976995;28;20219;-88
2021/10/23 11:15:44;;;;;;;8.97;2.10;;;10.00;99.90;;;;;;4973182;28;20211;-87
2021/10/23 11:18:18;;;;;;;10.73;1.97;;;10.00;99.90;;;;;;4957265;28;20216;-88
2021/10/23 11:20:51;;;;;;;7.13;2.00;;;10.10;99.90;;;;;;4956985;28;20696;-88
2021/10/23 11:23:22;;;;;;;8.50;2.67;;;10.00;99.90;;;;;;4957054;28;20572;-88
2021/10/23 11:25:55;;;;;;;9.17;2.00;;;9.90;99.90;;;;;;4957357;28;20242;-88
2021/10/23 11:28:28;;;;;;;8.23;2.17;;;9.90;99.90;;;;;;4983633;28;20276;-88
2021/10/23 11:31:00;;;;;;;8.87;2.40;;;9.90;99.90;;;;;;4992867;28;20250;-88
2021/10/23 11:33:32;;;;;;;6.70;2.13;;;9.90;99.90;;;;;;4977617;28;20256;-88
2021/10/23 11:36:19;;;;;;;9.73;1.90;;;9.90;99.90;;;;;;4966850;28;20228;-88
2021/10/23 11:38:52;;;;;;;7.83;2.07;;;9.90;99.90;;;;;;4993850;28;20314;-88
2021/10/23 11:41:33;;;;;;;5.87;2.00;;;10.00;99.90;;;;;;4977938;28;20728;-88
2021/10/23 11:44:08;;;;;;;5.40;1.97;;;10.00;99.90;;;;;;4978904;28;20203;-88
2021/10/23 11:46:40;;;;;;;4.93;1.93;;;10.00;99.90;;;;;;4977568;28;20250;-88
2021/10/23 11:49:13;;;;;;;5.90;1.80;;;10.00;99.90;;;;;;4976469;28;20318;-88
2021/10/23 11:51:44;;;;;;;6.73;2.10;;;10.00;99.90;;;;;;4977164;29;20215;-90
2021/10/23 11:54:15;;;;;;;4.57;1.90;;;10.00;99.90;;;;;;4990131;28;20198;-88
2021/10/23 11:56:53;;;;;;;10.87;2.23;;;10.00;99.90;;;;;;5013710;28;20210;-88
2021/10/23 11:59:26;;;;;;;10.83;1.83;;;10.00;99.90;;;;;;5014347;28;20190;-88
2021/10/23 12:01:57;;;;;;;11.50;2.17;;;10.00;99.90;;;;;;5014508;28;20194;-88
2021/10/23 12:04:32;;;;;;;8.93;2.20;;;10.00;99.90;;;;;;4987907;28;20207;-86
2021/10/23 12:07:04;;;;;;;9.00;2.50;;;10.10;99.90;;;;;;4961850;28;20204;-88
2021/10/23 12:09:35;;;;;;;8.83;1.83;;;10.10;99.90;;;;;;4971465;28;20246;-88
2021/10/23 12:12:09;;;;;;;7.27;1.77;;;10.10;99.90;;;;;;4979974;28;20223;-87
2021/10/23 12:14:41;;;;;;;6.80;1.77;;;10.10;99.90;;;;;;4988962;28;20234;-88
2021/10/23 12:17:12;;;;;;;10.57;2.33;;;10.10;99.90;;;;;;4979542;28;20207;-87
2021/10/23 12:19:44;;;;;;;8.60;2.23;;;10.10;99.90;;;;;;4979563;28;20207;-88
2021/10/23 12:22:17;;;;;;;9.43;2.17;;;10.10;99.90;;;;;;5001227;28;20199;-88
2021/10/23 12:24:53;;;;;;;8.97;2.20;;;10.10;99.90;;;;;;5000576;28;20237;-89
2021/10/23 12:27:28;;;;;;;7.13;2.17;;;10.10;99.90;;;;;;4999065;28;20293;-88
2021/10/23 12:30:07;;;;;;;8.20;2.03;;;10.10;99.90;;;;;;4998914;28;20229;-88
2021/10/23 12:32:40;;;;;;;5.63;1.87;;;10.10;99.90;;;;;;5002115;28;20233;-87
2021/10/23 12:35:13;;;;;;;7.00;1.97;;;10.10;99.90;;;;;;5001661;28;20262;-88
2021/10/23 12:37:54;;;;;;;7.37;1.80;;;10.10;99.90;;;;;;4989935;28;20239;-88
2021/10/23 12:40:31;;;;;;;6.23;2.20;;;10.10;99.90;;;;;;4990110;28;20576;-88
2021/10/23 12:43:09;;;;;;;7.10;2.10;;;10.00;99.90;;;;;;5004030;28;20257;-87
2021/10/23 12:45:42;;;;;;;8.30;2.33;;;10.00;99.90;;;;;;5011249;28;20825;-88
2021/10/23 12:48:15;;;;;;;7.97;1.47;;;10.00;99.90;;;;;;4988019;28;20235;-87
2021/10/23 12:50:48;;;;;;;10.40;2.10;;;9.90;99.90;;;;;;4981481;28;20612;-88
2021/10/23 12:53:20;;;;;;;9.20;2.57;;;9.90;99.90;;;;;;4983652;28;20263;-88
2021/10/23 12:55:51;;;;;;;6.87;1.57;;;9.90;99.90;;;;;;4981677;28;20247;-89
2021/10/23 12:58:27;;;;;;;8.53;2.03;;;9.90;99.90;;;;;;4978477;28;20203;-90
2021/10/23 13:01:00;;;;;;;6.20;2.13;;;9.90;99.90;;;;;;4990728;28;20234;-89
2021/10/23 13:03:32;;;;;;;5.37;1.70;;;9.90;99.90;;;;;;5008505;28;20206;-87
2021/10/23 13:06:03;;;;;;;5.60;1.67;;;9.80;99.90;;;;;;5003609;28;20241;-87
2021/10/23 13:08:34;;;;;;;5.70;1.67;;;9.80;99.90;;;;;;5007196;28;20233;-87
2021/10/23 13:11:07;;;;;;;7.40;1.90;;;9.90;99.90;;;;;;5018946;28;20202;-87
2021/10/23 13:13:42;;;;;;;7.07;2.20;;;9.90;99.90;;;;;;5004658;28;20199;-86
2021/10/23 13:16:14;;;;;;;8.77;2.07;;;9.80;99.90;;;;;;4965991;28;20207;-86
2021/10/23 13:18:45;;;;;;;6.33;1.60;;;9.80;99.90;;;;;;4962709;28;20204;-86
2021/10/23 13:21:16;;;;;;;7.77;2.20;;;9.80;99.90;;;;;;4962403;29;20207;-87
2021/10/23 13:23:48;;;;;;;7.60;1.40;;;9.90;99.90;;;;;;4992766;28;20214;-87
2021/10/23 13:26:20;;;;;;;5.17;1.73;;;9.90;99.90;;;;;;4997574;28;20206;-87
2021/10/23 13:28:53;;;;;;;7.23;1.83;;;9.90;99.90;;;;;;4999063;28;20292;-87
2021/10/23 13:31:25;;;;;;;7.60;1.60;;;9.90;99.90;;;;;;4987450;28;20208;-87
2021/10/23 13:33:58;;;;;;;6.47;1.80;;;9.80;99.90;;;;;;4959414;28;20207;-87
2021/10/23 13:36:29;;;;;;;6.20;1.53;;;9.90;99.90;;;;;;4959676;28;20215;-87